sensor_id;sensor_type;location;lat;lon;timestamp;pressure;altitude;pressure_sealevel;temperature;humidity
12868;BME280;33517;49.866;8.320;2022-11-20T00:01:18;100087.03;;;3.69;96.36
12868;BME280;33517;49.866;8.320;2022-11-20T00:04:12;100089.72;;;3.67;95.93
12868;BME280;33517;49.866;8.320;2022-11-20T00:07:04;100083.84;;;3.65;96.41
12868;BME280;33517;49.866;8.320;2022-11-20T00:09:56;100085.34;;;3.68;96.38
12868;BME280;33517;49.866;8.320;2022-11-20T00:12:48;100085.22;;;3.69;96.71
12868;BME280;33517;49.866;8.320;2022-11-20T00:15:40;100081.13;;;3.67;96.60
12868;BME280;33517;49.866;8.320;2022-11-20T00:18:32;100085.34;;;3.68;96.31
12868;BME280;33517;49.866;8.320;2022-11-20T00:21:27;100087.03;;;3.69;96.30
12868;BME280;33517;49.866;8.320;2022-11-20T00:24:19;100084.28;;;3.70;96.67
12868;BME280;33517;49.866;8.320;2022-11-20T00:27:11;100070.19;;;3.73;96.63
12868;BME280;33517;49.866;8.320;2022-11-20T00:30:03;100071.00;;;3.73;96.60
12868;BME280;33517;49.866;8.320;2022-11-20T00:32:56;100067.31;;;3.76;95.89
12868;BME280;33517;49.866;8.320;2022-11-20T00:35:48;100069.22;;;3.74;96.62
12868;BME280;33517;49.866;8.320;2022-11-20T00:38:41;100071.56;;;3.77;96.52
12868;BME280;33517;49.866;8.320;2022-11-20T00:41:33;100079.00;;;3.82;96.71
12868;BME280;33517;49.866;8.320;2022-11-20T00:44:25;100068.34;;;3.85;96.86
12868;BME280;33517;49.866;8.320;2022-11-20T00:47:17;100066.53;;;3.85;95.93
12868;BME280;33517;49.866;8.320;2022-11-20T00:50:09;100069.00;;;3.87;96.46
12868;BME280;33517;49.866;8.320;2022-11-20T00:53:00;100064.50;;;3.89;96.97
12868;BME280;33517;49.866;8.320;2022-11-20T00:55:55;100058.34;;;3.90;96.93
12868;BME280;33517;49.866;8.320;2022-11-20T00:58:48;100052.44;;;3.88;96.30
12868;BME280;33517;49.866;8.320;2022-11-20T01:01:40;100058.59;;;3.87;96.17
12868;BME280;33517;49.866;8.320;2022-11-20T01:04:32;100052.72;;;3.85;96.84
12868;BME280;33517;49.866;8.320;2022-11-20T01:07:24;100055.31;;;3.85;96.35
12868;BME280;33517;49.866;8.320;2022-11-20T01:10:16;100064.22;;;3.82;96.98
12868;BME280;33517;49.866;8.320;2022-11-20T01:13:09;100077.09;;;3.84;96.96
12868;BME280;33517;49.866;8.320;2022-11-20T01:16:21;100083.25;;;3.83;96.74
12868;BME280;33517;49.866;8.320;2022-11-20T01:19:15;100075.19;;;3.86;96.92
12868;BME280;33517;49.866;8.320;2022-11-20T01:22:07;100071.38;;;3.90;97.06
12868;BME280;33517;49.866;8.320;2022-11-20T01:24:59;100073.41;;;3.86;97.32
12868;BME280;33517;49.866;8.320;2022-11-20T01:27:51;100068.06;;;3.88;96.96
12868;BME280;33517;49.866;8.320;2022-11-20T01:30:44;100069.84;;;3.87;96.93
12868;BME280;33517;49.866;8.320;2022-11-20T01:33:36;100063.69;;;3.88;96.82
12868;BME280;33517;49.866;8.320;2022-11-20T01:36:30;100069.28;;;3.84;96.80
12868;BME280;33517;49.866;8.320;2022-11-20T01:39:23;100062.16;;;3.86;97.21
12868;BME280;33517;49.866;8.320;2022-11-20T01:42:15;100054.78;;;3.91;97.44
12868;BME280;33517;49.866;8.320;2022-11-20T01:45:52;100047.56;;;3.94;96.87
12868;BME280;33517;49.866;8.320;2022-11-20T01:48:51;100056.44;;;3.92;96.73
12868;BME280;33517;49.866;8.320;2022-11-20T01:51:49;100050.16;;;3.94;97.05
12868;BME280;33517;49.866;8.320;2022-11-20T01:54:45;100045.75;;;3.95;96.74
12868;BME280;33517;49.866;8.320;2022-11-20T01:57:40;100050.97;;;3.95;97.02
12868;BME280;33517;49.866;8.320;2022-11-20T02:00:32;100046.88;;;3.92;96.75
12868;BME280;33517;49.866;8.320;2022-11-20T02:03:26;100048.22;;;3.96;97.24
12868;BME280;33517;49.866;8.320;2022-11-20T02:06:22;100047.78;;;3.91;96.70
12868;BME280;33517;49.866;8.320;2022-11-20T02:09:15;100053.69;;;3.93;97.22
12868;BME280;33517;49.866;8.320;2022-11-20T02:12:07;100050.25;;;3.93;97.06
12868;BME280;33517;49.866;8.320;2022-11-20T02:15:20;100045.19;;;3.91;97.28
12868;BME280;33517;49.866;8.320;2022-11-20T02:18:11;100041.66;;;3.92;96.96
12868;BME280;33517;49.866;8.320;2022-11-20T02:21:11;100046.03;;;3.92;97.02
12868;BME280;33517;49.866;8.320;2022-11-20T02:24:09;100055.22;;;3.96;97.46
12868;BME280;33517;49.866;8.320;2022-11-20T02:27:03;100044.13;;;3.94;97.31
12868;BME280;33517;49.866;8.320;2022-11-20T02:29:58;100035.47;;;3.93;97.22
12868;BME280;33517;49.866;8.320;2022-11-20T02:32:52;100029.44;;;3.93;97.25
12868;BME280;33517;49.866;8.320;2022-11-20T02:35:45;100040.31;;;3.98;97.67
12868;BME280;33517;49.866;8.320;2022-11-20T02:38:37;100019.34;;;3.99;97.32
12868;BME280;33517;49.866;8.320;2022-11-20T02:41:36;100036.72;;;3.99;97.00
12868;BME280;33517;49.866;8.320;2022-11-20T02:44:28;100027.16;;;3.99;97.36
12868;BME280;33517;49.866;8.320;2022-11-20T02:47:20;100027.16;;;3.99;96.96
12868;BME280;33517;49.866;8.320;2022-11-20T02:50:12;100035.19;;;3.96;97.13
12868;BME280;33517;49.866;8.320;2022-11-20T02:53:04;100038.38;;;4.00;97.19
12868;BME280;33517;49.866;8.320;2022-11-20T02:55:56;100042.38;;;4.04;97.08
12868;BME280;33517;49.866;8.320;2022-11-20T02:58:49;100025.78;;;4.05;96.94
12868;BME280;33517;49.866;8.320;2022-11-20T03:01:41;100027.16;;;4.09;97.10
12868;BME280;33517;49.866;8.320;2022-11-20T03:04:33;100024.94;;;4.04;96.47
12868;BME280;33517;49.866;8.320;2022-11-20T03:07:25;100028.13;;;4.08;96.39
12868;BME280;33517;49.866;8.320;2022-11-20T03:10:17;100027.56;;;4.04;97.05
12868;BME280;33517;49.866;8.320;2022-11-20T03:13:08;100028.25;;;4.06;97.01
12868;BME280;33517;49.866;8.320;2022-11-20T03:16:07;100024.16;;;4.04;96.93
12868;BME280;33517;49.866;8.320;2022-11-20T03:18:59;100032.06;;;4.02;97.07
12868;BME280;33517;49.866;8.320;2022-11-20T03:21:51;100025.09;;;4.03;96.77
12868;BME280;33517;49.866;8.320;2022-11-20T03:24:43;100024.16;;;4.04;96.96
12868;BME280;33517;49.866;8.320;2022-11-20T03:27:35;100017.28;;;4.03;96.98
12868;BME280;33517;49.866;8.320;2022-11-20T03:30:27;100014.69;;;4.03;97.44
12868;BME280;33517;49.866;8.320;2022-11-20T03:33:20;100020.44;;;4.06;97.13
12868;BME280;33517;49.866;8.320;2022-11-20T03:36:14;100012.63;;;4.06;97.00
12868;BME280;33517;49.866;8.320;2022-11-20T03:39:06;100011.94;;;4.04;96.68
12868;BME280;33517;49.866;8.320;2022-11-20T03:41:58;100019.19;;;4.01;97.21
12868;BME280;33517;49.866;8.320;2022-11-20T03:44:50;100023.31;;;4.03;97.05
12868;BME280;33517;49.866;8.320;2022-11-20T03:47:42;100026.72;;;3.94;97.65
12868;BME280;33517;49.866;8.320;2022-11-20T03:50:35;100018.94;;;4.04;97.31
12868;BME280;33517;49.866;8.320;2022-11-20T03:53:27;100014.84;;;4.11;96.82
12868;BME280;33517;49.866;8.320;2022-11-20T03:56:22;100021.56;;;4.13;96.71
12868;BME280;33517;49.866;8.320;2022-11-20T03:59:14;100007.97;;;4.10;96.58
12868;BME280;33517;49.866;8.320;2022-11-20T04:02:06;100006.47;;;4.07;96.71
12868;BME280;33517;49.866;8.320;2022-11-20T04:04:58;100014.00;;;4.10;96.97
12868;BME280;33517;49.866;8.320;2022-11-20T04:07:51;100006.75;;;4.14;97.10
12868;BME280;33517;49.866;8.320;2022-11-20T04:10:43;100013.34;;;4.18;96.81
12868;BME280;33517;49.866;8.320;2022-11-20T04:13:36;99999.78;;;4.14;96.56
12868;BME280;33517;49.866;8.320;2022-11-20T04:16:29;99996.34;;;4.14;96.60
12868;BME280;33517;49.866;8.320;2022-11-20T04:19:21;100000.31;;;4.08;96.62
12868;BME280;33517;49.866;8.320;2022-11-20T04:22:13;100006.03;;;4.02;96.88
12868;BME280;33517;49.866;8.320;2022-11-20T04:25:08;100007.00;;;3.92;97.09
12868;BME280;33517;49.866;8.320;2022-11-20T04:27:59;100000.91;;;3.82;97.95
12868;BME280;33517;49.866;8.320;2022-11-20T04:30:51;99991.63;;;3.89;98.01
12868;BME280;33517;49.866;8.320;2022-11-20T04:33:43;99997.53;;;4.00;97.48
12868;BME280;33517;49.866;8.320;2022-11-20T04:36:35;100001.53;;;4.04;97.45
12868;BME280;33517;49.866;8.320;2022-11-20T04:39:27;100002.91;;;4.08;96.95
12868;BME280;33517;49.866;8.320;2022-11-20T04:42:20;99991.28;;;4.12;97.12
12868;BME280;33517;49.866;8.320;2022-11-20T04:45:21;99991.97;;;4.14;97.05
12868;BME280;33517;49.866;8.320;2022-11-20T04:48:13;99991.56;;;4.19;96.86
12868;BME280;33517;49.866;8.320;2022-11-20T04:51:05;99989.66;;;4.21;96.36
12868;BME280;33517;49.866;8.320;2022-11-20T04:53:57;99986.09;;;4.22;96.13
12868;BME280;33517;49.866;8.320;2022-11-20T04:56:50;99995.66;;;4.21;96.17
12868;BME280;33517;49.866;8.320;2022-11-20T04:59:43;99999.09;;;4.22;96.65
12868;BME280;33517;49.866;8.320;2022-11-20T05:02:35;99993.34;;;4.18;95.88
12868;BME280;33517;49.866;8.320;2022-11-20T05:05:27;99997.59;;;4.19;96.56
12868;BME280;33517;49.866;8.320;2022-11-20T05:08:19;99991.56;;;4.19;96.75
12868;BME280;33517;49.866;8.320;2022-11-20T05:11:12;99988.13;;;4.18;97.21
12868;BME280;33517;49.866;8.320;2022-11-20T05:14:04;99982.78;;;4.20;97.16
12868;BME280;33517;49.866;8.320;2022-11-20T05:16:58;99992.13;;;4.22;96.81
12868;BME280;33517;49.866;8.320;2022-11-20T05:19:49;99989.38;;;4.24;96.85
12868;BME280;33517;49.866;8.320;2022-11-20T05:22:41;99991.69;;;4.27;96.91
12868;BME280;33517;49.866;8.320;2022-11-20T05:25:33;99989.09;;;4.27;97.23
12868;BME280;33517;49.866;8.320;2022-11-20T05:28:26;99980.34;;;4.28;96.22
12868;BME280;33517;49.866;8.320;2022-11-20T05:31:20;99976.66;;;4.30;96.67
12868;BME280;33517;49.866;8.320;2022-11-20T05:34:14;99991.16;;;4.33;96.31
12868;BME280;33517;49.866;8.320;2022-11-20T05:37:06;99984.47;;;4.30;96.65
12868;BME280;33517;49.866;8.320;2022-11-20T05:39:58;99989.09;;;4.27;96.63
12868;BME280;33517;49.866;8.320;2022-11-20T05:42:50;99990.47;;;4.21;96.99
12868;BME280;33517;49.866;8.320;2022-11-20T05:45:41;99985.53;;;4.28;97.42
12868;BME280;33517;49.866;8.320;2022-11-20T05:48:34;99957.59;;;4.20;97.03
12868;BME280;33517;49.866;8.320;2022-11-20T05:51:28;99950.03;;;4.17;97.50
12868;BME280;33517;49.866;8.320;2022-11-20T05:54:20;99967.16;;;4.10;97.23
12868;BME280;33517;49.866;8.320;2022-11-20T05:57:12;99969.22;;;4.07;97.39
12868;BME280;33517;49.866;8.320;2022-11-20T06:00:04;99971.28;;;4.13;97.60
12868;BME280;33517;49.866;8.320;2022-11-20T06:02:56;99975.81;;;4.20;97.79
12868;BME280;33517;49.866;8.320;2022-11-20T06:05:48;99979.66;;;4.26;97.46
12868;BME280;33517;49.866;8.320;2022-11-20T06:08:42;99966.47;;;4.27;97.42
12868;BME280;33517;49.866;8.320;2022-11-20T06:11:34;99966.34;;;4.29;97.36
12868;BME280;33517;49.866;8.320;2022-11-20T06:14:25;99968.69;;;4.32;97.62
12868;BME280;33517;49.866;8.320;2022-11-20T06:17:17;99971.00;;;4.35;97.62
12868;BME280;33517;49.866;8.320;2022-11-20T06:20:10;99969.78;;;4.39;97.24
12868;BME280;33517;49.866;8.320;2022-11-20T06:23:01;99960.19;;;4.30;97.50
12868;BME280;33517;49.866;8.320;2022-11-20T06:25:55;99953.22;;;4.30;97.57
12868;BME280;33517;49.866;8.320;2022-11-20T06:28:47;99956.34;;;4.34;97.77
12868;BME280;33517;49.866;8.320;2022-11-20T06:31:39;99952.09;;;4.33;96.92
12868;BME280;33517;49.866;8.320;2022-11-20T06:34:32;99964.31;;;4.32;97.83
12868;BME280;33517;49.866;8.320;2022-11-20T06:37:24;99964.03;;;4.35;97.46
12868;BME280;33517;49.866;8.320;2022-11-20T06:40:16;99961.56;;;4.34;97.17
12868;BME280;33517;49.866;8.320;2022-11-20T06:43:10;99957.59;;;4.39;97.33
12868;BME280;33517;49.866;8.320;2022-11-20T06:46:02;99960.88;;;4.41;97.02
12868;BME280;33517;49.866;8.320;2022-11-20T06:48:54;99963.34;;;4.43;96.91
12868;BME280;33517;49.866;8.320;2022-11-20T06:51:46;99969.09;;;4.37;97.68
12868;BME280;33517;49.866;8.320;2022-11-20T06:54:37;99965.81;;;4.44;97.00
12868;BME280;33517;49.866;8.320;2022-11-20T06:57:29;99981.97;;;4.48;97.64
12868;BME280;33517;49.866;8.320;2022-11-20T07:00:22;99979.81;;;4.53;97.43
12868;BME280;33517;49.866;8.320;2022-11-20T07:03:14;99982.94;;;4.56;96.94
12868;BME280;33517;49.866;8.320;2022-11-20T07:06:06;99992.41;;;4.57;97.23
12868;BME280;33517;49.866;8.320;2022-11-20T07:08:58;99983.91;;;4.55;96.78
12868;BME280;33517;49.866;8.320;2022-11-20T07:11:50;99987.47;;;4.54;97.07
12868;BME280;33517;49.866;8.320;2022-11-20T07:14:42;99995.16;;;4.56;97.05
12868;BME280;33517;49.866;8.320;2022-11-20T07:17:35;100000.22;;;4.57;96.50
12868;BME280;33517;49.866;8.320;2022-11-20T07:20:27;99997.34;;;4.60;97.21
12868;BME280;33517;49.866;8.320;2022-11-20T07:23:19;99996.97;;;4.65;96.71
12868;BME280;33517;49.866;8.320;2022-11-20T07:26:11;99997.91;;;4.64;96.56
12868;BME280;33517;49.866;8.320;2022-11-20T07:29:03;100012.69;;;4.63;96.72
12868;BME280;33517;49.866;8.320;2022-11-20T07:31:55;100013.25;;;4.67;96.55
12868;BME280;33517;49.866;8.320;2022-11-20T07:34:48;100013.94;;;4.69;96.70
12868;BME280;33517;49.866;8.320;2022-11-20T07:37:40;100004.50;;;4.68;96.49
12868;BME280;33517;49.866;8.320;2022-11-20T07:40:32;100008.19;;;4.65;96.56
12868;BME280;33517;49.866;8.320;2022-11-20T07:43:24;100011.31;;;4.69;96.28
12868;BME280;33517;49.866;8.320;2022-11-20T07:46:16;100006.41;;;4.66;96.34
12868;BME280;33517;49.866;8.320;2022-11-20T07:49:08;100006.13;;;4.69;97.25
12868;BME280;33517;49.866;8.320;2022-11-20T07:52:01;100013.38;;;4.65;96.30
12868;BME280;33517;49.866;8.320;2022-11-20T07:54:53;100008.72;;;4.59;96.93
12868;BME280;33517;49.866;8.320;2022-11-20T07:57:45;100007.63;;;4.62;97.45
12868;BME280;33517;49.866;8.320;2022-11-20T08:00:37;100012.97;;;4.80;97.38
12868;BME280;33517;49.866;8.320;2022-11-20T08:03:28;100019.56;;;4.84;97.05
12868;BME280;33517;49.866;8.320;2022-11-20T08:06:20;100017.50;;;4.97;96.98
12868;BME280;33517;49.866;8.320;2022-11-20T08:09:13;100021.72;;;5.07;96.10
12868;BME280;33517;49.866;8.320;2022-11-20T08:12:06;100026.69;;;5.10;96.45
12868;BME280;33517;49.866;8.320;2022-11-20T08:15:15;100025.00;;;5.19;96.02
12868;BME280;33517;49.866;8.320;2022-11-20T08:18:09;100029.41;;;5.28;95.34
12868;BME280;33517;49.866;8.320;2022-11-20T08:21:03;100030.75;;;5.32;94.73
12868;BME280;33517;49.866;8.320;2022-11-20T08:23:55;100034.94;;;5.52;94.60
12868;BME280;33517;49.866;8.320;2022-11-20T08:26:48;100028.44;;;5.66;94.42
12868;BME280;33517;49.866;8.320;2022-11-20T08:29:40;100016.56;;;6.70;93.45
12868;BME280;33517;49.866;8.320;2022-11-20T08:32:32;100020.03;;;7.99;90.10
12868;BME280;33517;49.866;8.320;2022-11-20T08:35:25;100019.66;;;7.26;89.96
12868;BME280;33517;49.866;8.320;2022-11-20T08:38:17;100023.63;;;6.52;91.64
12868;BME280;33517;49.866;8.320;2022-11-20T08:41:09;100027.84;;;6.35;92.14
12868;BME280;33517;49.866;8.320;2022-11-20T08:44:18;100038.34;;;6.08;93.22
12868;BME280;33517;49.866;8.320;2022-11-20T08:47:10;100034.59;;;6.11;93.03
12868;BME280;33517;49.866;8.320;2022-11-20T08:50:02;100039.53;;;6.14;92.49
12868;BME280;33517;49.866;8.320;2022-11-20T08:52:54;100042.34;;;6.03;92.07
12868;BME280;33517;49.866;8.320;2022-11-20T08:55:46;100044.13;;;6.02;93.06
12868;BME280;33517;49.866;8.320;2022-11-20T08:58:38;100038.19;;;6.10;92.42
12868;BME280;33517;49.866;8.320;2022-11-20T09:01:31;100043.78;;;6.15;92.52
12868;BME280;33517;49.866;8.320;2022-11-20T09:04:23;100053.28;;;6.16;91.98
12868;BME280;33517;49.866;8.320;2022-11-20T09:07:15;100050.13;;;6.12;91.74
12868;BME280;33517;49.866;8.320;2022-11-20T09:10:07;100054.94;;;6.07;92.31
12868;BME280;33517;49.866;8.320;2022-11-20T09:13:00;100050.25;;;6.11;92.83
12868;BME280;33517;49.866;8.320;2022-11-20T09:15:53;100054.94;;;6.07;91.88
12868;BME280;33517;49.866;8.320;2022-11-20T09:18:49;100056.34;;;6.02;91.78
12868;BME280;33517;49.866;8.320;2022-11-20T09:21:41;100053.91;;;6.00;92.20
12868;BME280;33517;49.866;8.320;2022-11-20T09:24:33;100058.63;;;5.87;92.37
12868;BME280;33517;49.866;8.320;2022-11-20T09:27:25;100051.47;;;5.89;93.16
12868;BME280;33517;49.866;8.320;2022-11-20T09:30:16;100052.88;;;5.84;92.53
12868;BME280;33517;49.866;8.320;2022-11-20T09:33:09;100045.66;;;5.95;92.95
12868;BME280;33517;49.866;8.320;2022-11-20T09:36:02;100061.44;;;6.03;92.96
12868;BME280;33517;49.866;8.320;2022-11-20T09:38:54;100055.25;;;6.04;91.84
12868;BME280;33517;49.866;8.320;2022-11-20T09:42:07;100057.97;;;6.12;92.16
12868;BME280;33517;49.866;8.320;2022-11-20T09:45:18;100046.69;;;6.12;92.03
12868;BME280;33517;49.866;8.320;2022-11-20T09:48:20;100048.78;;;6.08;92.06
12868;BME280;33517;49.866;8.320;2022-11-20T09:51:26;100045.03;;;6.11;91.88
12868;BME280;33517;49.866;8.320;2022-11-20T09:54:23;100052.59;;;6.14;91.98
12868;BME280;33517;49.866;8.320;2022-11-20T09:57:20;100042.16;;;6.14;92.27
12868;BME280;33517;49.866;8.320;2022-11-20T10:00:14;100039.06;;;6.18;92.64
12868;BME280;33517;49.866;8.320;2022-11-20T10:03:13;100049.97;;;6.14;92.32
12868;BME280;33517;49.866;8.320;2022-11-20T10:06:11;100042.25;;;5.95;93.38
12868;BME280;33517;49.866;8.320;2022-11-20T10:09:18;100045.00;;;5.93;93.05
12868;BME280;33517;49.866;8.320;2022-11-20T10:12:14;100047.16;;;5.98;92.97
12868;BME280;33517;49.866;8.320;2022-11-20T10:15:29;100043.31;;;6.02;92.45
12868;BME280;33517;49.866;8.320;2022-11-20T10:18:30;100043.97;;;6.04;92.30
12868;BME280;33517;49.866;8.320;2022-11-20T10:21:30;100041.25;;;5.96;92.16
12868;BME280;33517;49.866;8.320;2022-11-20T10:24:44;100039.34;;;5.98;91.84
12868;BME280;33517;49.866;8.320;2022-11-20T10:27:54;100023.91;;;6.04;92.15
12868;BME280;33517;49.866;8.320;2022-11-20T10:30:51;100019.78;;;6.02;92.14
12868;BME280;33517;49.866;8.320;2022-11-20T10:33:47;100015.00;;;5.97;92.22
12868;BME280;33517;49.866;8.320;2022-11-20T10:36:43;100012.94;;;6.01;92.81
12868;BME280;33517;49.866;8.320;2022-11-20T10:39:44;100012.38;;;5.97;92.28
12868;BME280;33517;49.866;8.320;2022-11-20T10:42:43;100007.38;;;5.77;92.64
12868;BME280;33517;49.866;8.320;2022-11-20T10:45:46;100010.91;;;5.58;93.62
12868;BME280;33517;49.866;8.320;2022-11-20T10:48:42;100008.09;;;5.69;93.74
12868;BME280;33517;49.866;8.320;2022-11-20T10:51:37;99994.72;;;5.91;93.72
12868;BME280;33517;49.866;8.320;2022-11-20T10:54:36;100002.34;;;6.02;93.23
12868;BME280;33517;49.866;8.320;2022-11-20T10:57:50;100002.72;;;6.07;92.08
12868;BME280;33517;49.866;8.320;2022-11-20T11:00:43;99997.03;;;5.94;92.41
12868;BME280;33517;49.866;8.320;2022-11-20T11:03:35;99990.97;;;5.94;93.59
12868;BME280;33517;49.866;8.320;2022-11-20T11:06:31;99994.03;;;5.89;92.61
12868;BME280;33517;49.866;8.320;2022-11-20T11:09:32;100000.78;;;5.73;92.71
12868;BME280;33517;49.866;8.320;2022-11-20T11:12:26;99995.41;;;5.93;94.11
12868;BME280;33517;49.866;8.320;2022-11-20T11:15:27;99988.72;;;6.08;93.08
12868;BME280;33517;49.866;8.320;2022-11-20T11:18:24;99986.00;;;6.00;93.92
12868;BME280;33517;49.866;8.320;2022-11-20T11:21:21;99974.09;;;6.15;93.73
12868;BME280;33517;49.866;8.320;2022-11-20T11:24:20;99979.25;;;6.25;93.36
12868;BME280;33517;49.866;8.320;2022-11-20T11:27:14;99971.41;;;6.25;93.12
12868;BME280;33517;49.866;8.320;2022-11-20T11:30:13;99962.16;;;6.30;93.49
12868;BME280;33517;49.866;8.320;2022-11-20T11:33:10;99965.78;;;6.37;93.39
12868;BME280;33517;49.866;8.320;2022-11-20T11:36:05;99966.53;;;6.65;93.19
12868;BME280;33517;49.866;8.320;2022-11-20T11:39:11;99956.84;;;6.75;91.64
12868;BME280;33517;49.866;8.320;2022-11-20T11:42:05;99958.97;;;6.80;92.78
12868;BME280;33517;49.866;8.320;2022-11-20T11:44:59;99953.19;;;6.94;92.42
12868;BME280;33517;49.866;8.320;2022-11-20T11:48:00;99952.66;;;7.08;91.47
12868;BME280;33517;49.866;8.320;2022-11-20T11:50:56;99957.72;;;7.09;92.50
12868;BME280;33517;49.866;8.320;2022-11-20T11:53:48;99944.47;;;7.11;91.40
12868;BME280;33517;49.866;8.320;2022-11-20T11:56:41;99946.88;;;7.04;91.57
12868;BME280;33517;49.866;8.320;2022-11-20T11:59:45;99947.06;;;6.85;91.86
12868;BME280;33517;49.866;8.320;2022-11-20T12:02:52;99943.59;;;6.77;92.83
12868;BME280;33517;49.866;8.320;2022-11-20T12:05:47;99931.56;;;6.66;93.18
12868;BME280;33517;49.866;8.320;2022-11-20T12:08:45;99919.41;;;6.75;94.03
12868;BME280;33517;49.866;8.320;2022-11-20T12:11:43;99921.88;;;7.02;93.09
12868;BME280;33517;49.866;8.320;2022-11-20T12:14:37;99927.41;;;7.24;92.81
12868;BME280;33517;49.866;8.320;2022-11-20T12:17:30;99915.44;;;7.56;91.91
12868;BME280;33517;49.866;8.320;2022-11-20T12:20:25;99915.56;;;8.04;92.20
12868;BME280;33517;49.866;8.320;2022-11-20T12:23:22;99912.16;;;8.11;91.98
12868;BME280;33517;49.866;8.320;2022-11-20T12:26:29;99904.50;;;8.26;91.03
12868;BME280;33517;49.866;8.320;2022-11-20T12:29:36;99900.06;;;8.34;90.58
12868;BME280;33517;49.866;8.320;2022-11-20T12:32:54;99897.97;;;8.30;91.16
12868;BME280;33517;49.866;8.320;2022-11-20T12:36:09;99905.47;;;8.33;90.03
12868;BME280;33517;49.866;8.320;2022-11-20T12:39:12;99906.78;;;8.29;90.99
12868;BME280;33517;49.866;8.320;2022-11-20T12:42:41;99894.03;;;8.34;90.72
12868;BME280;33517;49.866;8.320;2022-11-20T12:46:22;99899.28;;;8.34;90.96
12868;BME280;33517;49.866;8.320;2022-11-20T12:49:27;99910.25;;;8.38;90.94
12868;BME280;33517;49.866;8.320;2022-11-20T12:52:36;99905.13;;;8.20;91.89
12868;BME280;33517;49.866;8.320;2022-11-20T12:55:36;99906.78;;;8.21;91.30
12868;BME280;33517;49.866;8.320;2022-11-20T12:58:38;99901.50;;;8.05;91.52
12868;BME280;33517;49.866;8.320;2022-11-20T13:01:39;99895.56;;;7.79;92.46
12868;BME280;33517;49.866;8.320;2022-11-20T13:04:49;99897.38;;;7.86;94.00
12868;BME280;33517;49.866;8.320;2022-11-20T13:07:47;99883.63;;;7.84;93.35
12868;BME280;33517;49.866;8.320;2022-11-20T13:10:46;99884.44;;;7.93;92.90
12868;BME280;33517;49.866;8.320;2022-11-20T13:13:48;99877.09;;;8.12;92.62
12868;BME280;33517;49.866;8.320;2022-11-20T13:16:51;99880.06;;;8.09;92.43
12868;BME280;33517;49.866;8.320;2022-11-20T13:19:47;99877.06;;;7.96;92.48
12868;BME280;33517;49.866;8.320;2022-11-20T13:22:46;99873.00;;;8.02;91.47
12868;BME280;33517;49.866;8.320;2022-11-20T13:25:39;99866.44;;;8.14;92.38
12868;BME280;33517;49.866;8.320;2022-11-20T13:28:31;99860.41;;;8.21;91.82
12868;BME280;33517;49.866;8.320;2022-11-20T13:31:29;99854.50;;;8.11;92.02
12868;BME280;33517;49.866;8.320;2022-11-20T13:34:24;99854.34;;;8.13;92.41
12868;BME280;33517;49.866;8.320;2022-11-20T13:37:25;99849.09;;;8.13;91.44
12868;BME280;33517;49.866;8.320;2022-11-20T13:40:22;99848.09;;;8.14;91.38
12868;BME280;33517;49.866;8.320;2022-11-20T13:43:32;99843.50;;;8.08;91.32
12868;BME280;33517;49.866;8.320;2022-11-20T13:46:37;99840.25;;;8.06;92.37
12868;BME280;33517;49.866;8.320;2022-11-20T13:49:32;99833.19;;;8.06;91.81
12868;BME280;33517;49.866;8.320;2022-11-20T13:52:37;99839.75;;;8.10;92.45
12868;BME280;33517;49.866;8.320;2022-11-20T13:55:36;99830.13;;;8.19;93.13
12868;BME280;33517;49.866;8.320;2022-11-20T13:58:40;99831.06;;;8.10;93.15
12868;BME280;33517;49.866;8.320;2022-11-20T14:01:35;99831.72;;;8.12;92.72
12868;BME280;33517;49.866;8.320;2022-11-20T14:04:33;99820.44;;;8.19;93.22
12868;BME280;33517;49.866;8.320;2022-11-20T14:07:32;99818.00;;;8.26;93.12
12868;BME280;33517;49.866;8.320;2022-11-20T14:10:28;99809.16;;;8.27;93.23
12868;BME280;33517;49.866;8.320;2022-11-20T14:13:21;99798.16;;;7.99;94.25
12868;BME280;33517;49.866;8.320;2022-11-20T14:16:13;99798.63;;;7.87;94.71
12868;BME280;33517;49.866;8.320;2022-11-20T14:19:24;99793.03;;;7.66;94.14
12868;BME280;33517;49.866;8.320;2022-11-20T14:22:20;99800.53;;;7.36;94.45
12868;BME280;33517;49.866;8.320;2022-11-20T14:25:19;99804.56;;;7.23;95.87
12868;BME280;33517;49.866;8.320;2022-11-20T14:28:21;99802.41;;;7.18;95.31
12868;BME280;33517;49.866;8.320;2022-11-20T14:31:21;99793.88;;;7.08;96.32
12868;BME280;33517;49.866;8.320;2022-11-20T14:34:17;99794.69;;;7.09;96.60
12868;BME280;33517;49.866;8.320;2022-11-20T14:37:13;99787.97;;;7.06;96.51
12868;BME280;33517;49.866;8.320;2022-11-20T14:40:23;99789.63;;;7.07;96.15
12868;BME280;33517;49.866;8.320;2022-11-20T14:43:18;99780.13;;;7.06;96.35
12868;BME280;33517;49.866;8.320;2022-11-20T14:46:10;99780.63;;;7.02;96.46
12868;BME280;33517;49.866;8.320;2022-11-20T14:49:03;99769.00;;;6.96;96.24
12868;BME280;33517;49.866;8.320;2022-11-20T14:51:59;99775.69;;;6.91;96.49
12868;BME280;33517;49.866;8.320;2022-11-20T14:54:56;99774.34;;;6.87;96.33
12868;BME280;33517;49.866;8.320;2022-11-20T14:57:54;99773.53;;;6.86;96.43
12868;BME280;33517;49.866;8.320;2022-11-20T15:00:53;99765.03;;;6.84;97.73
12868;BME280;33517;49.866;8.320;2022-11-20T15:03:45;99768.59;;;6.83;97.70
12868;BME280;33517;49.866;8.320;2022-11-20T15:06:48;99760.91;;;6.82;96.61
12868;BME280;33517;49.866;8.320;2022-11-20T15:09:40;99755.84;;;6.80;97.82
12868;BME280;33517;49.866;8.320;2022-11-20T15:12:36;99762.72;;;6.81;97.25
12868;BME280;33517;49.866;8.320;2022-11-20T15:15:31;99753.44;;;6.87;97.39
12868;BME280;33517;49.866;8.320;2022-11-20T15:18:28;99750.31;;;6.91;97.65
12868;BME280;33517;49.866;8.320;2022-11-20T15:21:21;99753.78;;;6.92;98.34
12868;BME280;33517;49.866;8.320;2022-11-20T15:24:13;99752.16;;;6.91;97.66
12868;BME280;33517;49.866;8.320;2022-11-20T15:27:07;99750.31;;;6.91;98.38
12868;BME280;33517;49.866;8.320;2022-11-20T15:30:01;99750.00;;;6.86;97.88
12868;BME280;33517;49.866;8.320;2022-11-20T15:32:52;99743.09;;;6.85;98.31
12868;BME280;33517;49.866;8.320;2022-11-20T15:35:45;99738.22;;;6.82;98.10